Terminal Aerodrome Forecast
Issued by NWS Nashville, TN

Home | Current Version | Previous Version | Text Only | Print | Product List | Glossary On
Versions: 1 2 3 4 5 6 7 8 9 10 11 12 13 14 15
075
FTUS44 KOHX 272325
TAFBNA
TAF
KBNA 272325Z 2800/2824 20005KT P6SM SCT050 SCT250
     FM280600 00000KT 5SM -RA BR BKN025 OVC050
     FM281100 22004KT 4SM -SHRA BR BKN007 OVC020
     FM281600 21008KT 2SM TSRA OVC015CB
     FM282300 25006KT P6SM OVC025=

USA.gov is the U.S. government's official web portal to all federal, state and local government web resources and services.